createdAt,value
2022-08-23T00:02:23.599Z,28.10
2022-08-23T00:05:03.486Z,22.20
2022-08-23T00:07:38.744Z,25.95
2022-08-23T00:10:06.822Z,25.88
2022-08-23T00:12:34.138Z,23.52
2022-08-23T00:15:01.467Z,24.35
2022-08-23T00:17:31.120Z,30.58
2022-08-23T00:20:02.117Z,30.77
2022-08-23T00:22:29.422Z,24.40
2022-08-23T00:24:56.709Z,26.20
2022-08-23T00:27:24.075Z,25.42
2022-08-23T00:29:52.403Z,25.70
2022-08-23T00:32:24.986Z,29.23
2022-08-23T00:34:52.908Z,27.70
2022-08-23T00:37:20.209Z,29.20
2022-08-23T00:39:47.774Z,25.00
2022-08-23T00:42:42.852Z,25.60
2022-08-23T00:45:29.761Z,21.48
2022-08-23T00:47:58.017Z,29.48
2022-08-23T00:50:35.741Z,20.85
2022-08-23T00:53:11.761Z,24.00
2022-08-23T00:55:40.348Z,22.70
2022-08-23T00:58:08.715Z,23.70
2022-08-23T01:00:36.192Z,28.27
2022-08-23T01:03:07.218Z,24.63
2022-08-23T01:08:02.488Z,26.08
2022-08-23T01:10:42.244Z,29.13
2022-08-23T01:13:14.972Z,25.40
2022-08-23T01:15:44.347Z,26.52
2022-08-23T01:18:14.111Z,25.13
2022-08-23T01:21:00.051Z,23.02
2022-08-23T01:23:42.429Z,24.88
2022-08-23T01:26:10.960Z,22.35
2022-08-23T01:28:41.011Z,30.02
2022-08-23T01:31:13.791Z,30.77
2022-08-23T01:33:42.086Z,23.17
2022-08-23T01:36:11.576Z,27.75
2022-08-23T01:38:39.007Z,26.08
2022-08-23T01:41:07.079Z,27.23
2022-08-23T01:43:34.529Z,24.23
2022-08-23T01:46:10.047Z,23.90
2022-08-23T01:48:37.430Z,20.27
2022-08-23T01:51:04.848Z,23.20
2022-08-23T01:53:32.581Z,23.85
2022-08-23T01:56:01.689Z,26.35
2022-08-23T01:58:30.372Z,21.73
2022-08-23T02:00:57.972Z,23.65
2022-08-23T02:03:25.507Z,21.73
2022-08-23T02:08:43.634Z,24.13
2022-08-23T02:11:15.955Z,30.85
2022-08-23T02:13:44.122Z,26.85
2022-08-23T02:16:14.854Z,25.02
2022-08-23T02:18:42.493Z,23.10
2022-08-23T02:21:10.577Z,25.50
2022-08-23T02:23:37.931Z,22.75
2022-08-23T02:26:06.997Z,27.75
2022-08-23T02:28:34.318Z,23.88
2022-08-23T02:31:01.670Z,23.63
2022-08-23T02:33:29.746Z,26.90
2022-08-23T02:35:57.091Z,30.58
2022-08-23T02:38:24.429Z,25.10
2022-08-23T02:41:01.051Z,22.38
2022-08-23T02:43:28.590Z,28.23
2022-08-23T02:45:55.893Z,25.58
2022-08-23T02:48:23.221Z,26.10
2022-08-23T02:50:50.558Z,23.17
2022-08-23T02:53:18.176Z,28.00
2022-08-23T02:55:46.150Z,22.70
2022-08-23T02:58:13.580Z,20.63
2022-08-23T03:00:41.045Z,19.23
2022-08-23T03:03:08.382Z,19.40
2022-08-23T03:05:35.737Z,20.88
2022-08-23T03:08:03.313Z,25.15
2022-08-23T03:10:31.277Z,20.95
2022-08-23T03:12:58.625Z,23.98
2022-08-23T03:15:25.994Z,23.75
2022-08-23T03:17:53.570Z,25.38
2022-08-23T03:20:20.995Z,19.85
2022-08-23T03:22:54.734Z,22.92
2022-08-23T03:25:22.782Z,18.35
2022-08-23T03:27:50.070Z,20.92
2022-08-23T03:30:19.962Z,20.90
2022-08-23T03:32:48.992Z,25.58
2022-08-23T03:35:16.886Z,29.77
2022-08-23T03:37:44.176Z,28.42
2022-08-23T03:40:11.899Z,21.02
2022-08-23T03:42:39.321Z,22.73
2022-08-23T03:45:06.834Z,26.33
2022-08-23T03:47:34.576Z,21.60
2022-08-23T03:50:01.900Z,23.10
2022-08-23T03:52:29.235Z,18.13
2022-08-23T03:54:56.662Z,26.02
2022-08-23T03:57:23.981Z,19.65
2022-08-23T03:59:51.273Z,16.52
2022-08-23T04:02:18.580Z,23.25
2022-08-23T04:04:45.891Z,18.92
2022-08-23T04:07:13.202Z,19.02
2022-08-23T04:09:40.562Z,27.00
2022-08-23T04:12:17.545Z,24.30
2022-08-23T04:14:45.822Z,20.10
2022-08-23T04:17:17.850Z,22.88
2022-08-23T04:19:45.179Z,15.93
2022-08-23T04:22:13.902Z,20.85
2022-08-23T04:24:42.110Z,18.50
2022-08-23T04:27:09.791Z,18.30
2022-08-23T04:29:39.160Z,17.52
2022-08-23T04:32:07.794Z,15.73
2022-08-23T04:34:40.350Z,19.70
2022-08-23T04:37:09.433Z,15.18
2022-08-23T04:39:56.411Z,21.55
2022-08-23T04:42:23.835Z,15.05
2022-08-23T04:44:51.330Z,16.88
2022-08-23T04:47:20.023Z,22.05
2022-08-23T04:49:47.351Z,18.38
2022-08-23T04:52:19.011Z,18.40
2022-08-23T04:54:46.961Z,19.08
2022-08-23T04:57:15.564Z,16.38
2022-08-23T04:59:43.335Z,16.02
2022-08-23T05:02:10.664Z,16.30
2022-08-23T05:04:37.990Z,18.42
2022-08-23T05:07:05.366Z,16.75
2022-08-23T05:09:32.655Z,18.58
2022-08-23T05:11:59.955Z,19.05
2022-08-23T05:14:27.238Z,16.58
2022-08-23T05:16:54.586Z,14.52
2022-08-23T05:19:21.879Z,16.90
2022-08-23T05:21:50.478Z,12.98
2022-08-23T05:24:19.266Z,13.30
2022-08-23T05:26:46.577Z,17.38
2022-08-23T05:29:13.902Z,15.23
2022-08-23T05:31:41.246Z,18.55
2022-08-23T05:34:08.707Z,13.70
2022-08-23T05:36:36.080Z,17.75
2022-08-23T05:39:03.487Z,15.07
2022-08-23T05:41:38.238Z,13.63
2022-08-23T05:44:05.918Z,11.75
2022-08-23T05:46:33.854Z,17.73
2022-08-23T05:49:01.698Z,15.60
2022-08-23T05:51:30.435Z,16.27
2022-08-23T05:53:59.224Z,16.10
2022-08-23T05:56:28.117Z,19.85
2022-08-23T05:59:00.067Z,26.77
2022-08-23T06:01:28.234Z,17.90
2022-08-23T06:03:55.577Z,17.63
2022-08-23T06:06:22.941Z,17.23
2022-08-23T06:09:03.831Z,16.77
2022-08-23T06:11:31.384Z,10.55
2022-08-23T06:14:00.177Z,24.30
2022-08-23T06:16:31.889Z,17.35
2022-08-23T06:19:00.012Z,15.85
2022-08-23T06:21:27.959Z,18.38
2022-08-23T06:23:55.679Z,19.65
2022-08-23T06:26:31.436Z,17.33
2022-08-23T06:29:00.091Z,9.63
2022-08-23T06:31:46.627Z,22.52
2022-08-23T06:34:25.522Z,19.30
2022-08-23T06:36:57.229Z,20.65
2022-08-23T06:39:26.082Z,15.43
2022-08-23T06:41:53.910Z,14.18
2022-08-23T06:44:21.279Z,18.17
2022-08-23T06:46:49.484Z,10.50
2022-08-23T06:49:17.288Z,15.57
2022-08-23T06:51:46.021Z,17.77
2022-08-23T06:54:14.556Z,21.40
2022-08-23T06:56:42.722Z,17.23
2022-08-23T06:59:12.279Z,18.40
2022-08-23T07:01:45.692Z,20.35
2022-08-23T07:04:14.755Z,14.93
2022-08-23T07:06:42.170Z,37.85
2022-08-23T07:09:09.477Z,39.63
2022-08-23T07:11:37.119Z,32.70
2022-08-23T07:14:06.648Z,19.77
2022-08-23T07:16:35.488Z,19.42
2022-08-23T07:19:02.903Z,17.38
2022-08-23T07:21:31.707Z,18.42
2022-08-23T07:23:59.034Z,14.07
2022-08-23T07:26:26.387Z,20.38
2022-08-23T07:28:57.231Z,24.83
2022-08-23T07:31:30.565Z,32.85
2022-08-23T07:34:02.350Z,25.23
2022-08-23T07:36:30.835Z,16.90
2022-08-23T07:38:58.649Z,19.98
2022-08-23T07:41:32.777Z,19.45
2022-08-23T07:44:03.829Z,34.13
2022-08-23T07:46:31.830Z,25.30
2022-08-23T07:49:00.175Z,15.40
2022-08-23T07:51:28.194Z,31.38
2022-08-23T07:53:55.533Z,13.93
2022-08-23T07:56:23.168Z,17.98
2022-08-23T07:58:50.578Z,16.27
2022-08-23T08:01:27.827Z,19.67
2022-08-23T08:03:56.838Z,17.88
2022-08-23T08:06:29.348Z,35.65
2022-08-23T08:08:56.800Z,30.92
2022-08-23T08:11:25.398Z,17.65
2022-08-23T08:13:52.738Z,36.03
2022-08-23T08:16:24.593Z,19.48
2022-08-23T08:18:52.548Z,13.20
2022-08-23T08:21:20.116Z,12.63
2022-08-23T08:23:47.456Z,13.00
2022-08-23T08:26:14.816Z,24.85
2022-08-23T08:28:42.164Z,16.77
2022-08-23T08:31:10.100Z,10.93
2022-08-23T08:33:37.514Z,17.67
2022-08-23T08:36:05.551Z,17.00
2022-08-23T08:38:36.848Z,16.27
2022-08-23T08:41:17.407Z,13.23
2022-08-23T08:43:59.073Z,16.67
2022-08-23T08:46:32.299Z,19.30
2022-08-23T08:49:01.350Z,13.25
2022-08-23T08:51:47.351Z,14.57
2022-08-23T08:54:17.574Z,15.18
2022-08-23T08:56:46.276Z,17.88
2022-08-23T08:59:20.987Z,10.93
2022-08-23T09:01:48.678Z,17.20
2022-08-23T09:04:16.150Z,15.90
2022-08-23T09:06:53.477Z,14.30
2022-08-23T09:09:40.400Z,14.05
2022-08-23T09:12:26.889Z,15.60
2022-08-23T09:15:00.133Z,13.48
2022-08-23T09:17:27.485Z,10.45
2022-08-23T09:19:57.492Z,23.23
2022-08-23T09:22:38.848Z,13.43
2022-08-23T09:25:07.979Z,11.88
2022-08-23T09:27:43.135Z,12.50
2022-08-23T09:30:11.310Z,13.95
2022-08-23T09:32:39.942Z,13.70
2022-08-23T09:35:18.638Z,20.15
2022-08-23T09:38:06.777Z,15.77
2022-08-23T09:40:34.181Z,19.25
2022-08-23T09:43:07.367Z,14.68
2022-08-23T09:45:39.135Z,15.10
2022-08-23T09:48:07.593Z,23.25
2022-08-23T09:50:40.026Z,19.48
2022-08-23T09:53:09.095Z,11.70
2022-08-23T09:55:43.505Z,19.25
2022-08-23T09:58:18.820Z,12.13
2022-08-23T10:01:06.067Z,14.15
2022-08-23T10:03:33.441Z,16.40
2022-08-23T10:06:01.573Z,17.08
2022-08-23T10:08:32.953Z,10.00
2022-08-23T10:11:06.010Z,16.13
2022-08-23T10:13:36.099Z,15.73
2022-08-23T10:16:03.442Z,19.40
2022-08-23T10:18:30.749Z,19.17
2022-08-23T10:21:10.362Z,20.98
2022-08-23T10:23:48.380Z,14.83
2022-08-23T10:26:23.026Z,13.65
2022-08-23T10:29:22.732Z,13.50
2022-08-23T10:32:02.038Z,14.25
2022-08-23T10:34:32.309Z,16.42
2022-08-23T10:39:27.978Z,14.63
2022-08-23T10:42:01.739Z,18.55
2022-08-23T10:44:41.249Z,15.68
2022-08-23T10:47:31.109Z,15.35
2022-08-23T10:50:01.169Z,20.92
2022-08-23T10:52:31.980Z,18.02
2022-08-23T10:55:01.228Z,21.60
2022-08-23T10:57:34.379Z,19.23
2022-08-23T11:00:02.840Z,14.38
2022-08-23T11:02:35.761Z,14.40
2022-08-23T11:05:05.801Z,12.93
2022-08-23T11:07:42.988Z,13.38
2022-08-23T11:10:17.715Z,14.15
2022-08-23T11:13:01.528Z,25.70
2022-08-23T11:15:49.296Z,18.77
2022-08-23T11:18:36.740Z,16.92
2022-08-23T11:21:19.451Z,14.82
2022-08-23T11:23:46.759Z,16.35
2022-08-23T11:26:23.368Z,21.70
2022-08-23T11:28:51.746Z,16.25
2022-08-23T11:31:22.475Z,19.17
2022-08-23T11:33:49.883Z,19.92
2022-08-23T11:36:22.418Z,19.60
2022-08-23T11:38:49.995Z,14.38
2022-08-23T11:41:20.333Z,13.73
2022-08-23T11:43:47.774Z,14.45
2022-08-23T11:46:26.919Z,21.30
2022-08-23T11:49:12.274Z,18.52
2022-08-23T11:51:42.726Z,12.25
2022-08-23T11:54:16.067Z,14.65
2022-08-23T11:57:12.756Z,23.42
2022-08-23T11:59:42.820Z,16.13
2022-08-23T12:02:32.295Z,26.88
2022-08-23T12:05:02.223Z,21.98
2022-08-23T12:07:53.186Z,13.52
2022-08-23T12:10:46.488Z,14.93
2022-08-23T12:13:19.905Z,20.92
2022-08-23T12:16:16.981Z,23.25
2022-08-23T12:18:48.076Z,11.88
2022-08-23T12:21:21.987Z,18.23
2022-08-23T12:23:51.605Z,20.38
2022-08-23T12:26:37.781Z,19.13
2022-08-23T12:29:08.042Z,22.40
2022-08-23T12:31:58.603Z,19.20
2022-08-23T12:34:41.193Z,20.65
2022-08-23T12:37:14.508Z,18.23
2022-08-23T12:39:55.249Z,24.85
2022-08-23T12:42:27.775Z,22.35
2022-08-23T12:45:13.479Z,22.05
2022-08-23T12:47:44.377Z,18.92
2022-08-23T12:50:12.345Z,14.27
2022-08-23T12:52:39.759Z,21.55
2022-08-23T12:55:18.621Z,20.88
2022-08-23T12:57:54.471Z,13.35
2022-08-23T13:00:23.934Z,16.17
2022-08-23T13:03:11.404Z,17.30
2022-08-23T13:05:44.281Z,34.83
2022-08-23T13:08:14.749Z,29.58
2022-08-23T13:10:43.341Z,11.52
2022-08-23T13:13:15.324Z,12.57
2022-08-23T13:15:50.745Z,19.58
2022-08-23T13:18:32.278Z,15.50
2022-08-23T13:21:18.570Z,19.23
2022-08-23T13:23:47.926Z,17.33
2022-08-23T13:26:27.579Z,17.05
2022-08-23T13:29:21.286Z,27.25
2022-08-23T13:31:49.437Z,22.05
2022-08-23T13:34:33.206Z,21.23
2022-08-23T13:37:01.427Z,19.90
2022-08-23T13:39:30.846Z,19.75
2022-08-23T13:41:58.511Z,17.63
2022-08-23T13:44:26.315Z,18.20
2022-08-23T13:46:53.682Z,29.02
2022-08-23T13:49:23.215Z,29.48
2022-08-23T13:52:18.387Z,20.92
2022-08-23T13:54:51.235Z,24.98
2022-08-23T13:57:20.776Z,24.60
2022-08-23T13:59:55.549Z,23.05
2022-08-23T14:02:23.932Z,26.55
2022-08-23T14:04:51.656Z,19.00
2022-08-23T14:07:19.408Z,33.40
2022-08-23T14:09:46.829Z,31.52
2022-08-23T14:12:18.932Z,22.02
2022-08-23T14:14:46.757Z,27.88
2022-08-23T14:17:15.808Z,23.23
2022-08-23T14:22:34.156Z,33.40
2022-08-23T14:25:01.474Z,31.70
2022-08-23T14:27:28.755Z,25.08
2022-08-23T14:29:56.148Z,28.38
2022-08-23T14:32:23.445Z,15.80
2022-08-23T14:34:51.325Z,26.42
2022-08-23T14:38:02.813Z,29.15
2022-08-23T14:40:06.614Z,32.45
2022-08-23T14:42:34.029Z,29.30
2022-08-23T14:45:01.338Z,35.22
2022-08-23T14:47:29.306Z,32.55
2022-08-23T14:49:56.619Z,26.75
2022-08-23T14:52:24.182Z,24.90
2022-08-23T14:54:51.495Z,30.08
2022-08-23T14:57:18.834Z,31.45
2022-08-23T14:59:46.199Z,30.65
2022-08-23T15:02:14.475Z,40.33
2022-08-23T15:04:42.381Z,36.03
2022-08-23T15:07:18.707Z,24.27
2022-08-23T15:09:50.337Z,28.85
2022-08-23T15:15:12.104Z,30.42
2022-08-23T15:17:44.417Z,32.65
2022-08-23T15:20:11.810Z,34.42
2022-08-23T15:22:44.497Z,41.50
2022-08-23T15:25:12.835Z,30.48
2022-08-23T15:27:40.221Z,38.03
2022-08-23T15:30:07.746Z,32.10
2022-08-23T15:32:35.082Z,36.30
2022-08-23T15:35:05.048Z,27.20
2022-08-23T15:37:32.712Z,38.33
2022-08-23T15:40:00.304Z,42.53
2022-08-23T15:42:27.821Z,28.85
2022-08-23T15:44:55.141Z,29.83
2022-08-23T15:47:27.295Z,34.40
2022-08-23T15:49:55.842Z,29.52
2022-08-23T15:52:23.203Z,36.60
2022-08-23T15:54:50.624Z,30.10
2022-08-23T15:57:20.304Z,26.42
2022-08-23T15:59:47.962Z,39.50
2022-08-23T16:02:15.700Z,28.80
2022-08-23T16:04:43.084Z,34.08
2022-08-23T16:07:13.183Z,30.70
2022-08-23T16:09:41.041Z,31.52
2022-08-23T16:12:08.842Z,27.08
2022-08-23T16:14:36.799Z,42.40
2022-08-23T16:17:04.587Z,33.90
2022-08-23T16:19:32.875Z,22.98
2022-08-23T16:22:00.184Z,33.35
2022-08-23T16:24:30.356Z,27.05
2022-08-23T16:26:57.769Z,31.65
2022-08-23T16:29:25.178Z,33.42
2022-08-23T16:31:52.535Z,32.17
2022-08-23T16:34:20.525Z,34.75
2022-08-23T16:36:57.550Z,35.20
2022-08-23T16:39:26.154Z,28.27
2022-08-23T16:41:53.448Z,28.25
2022-08-23T16:44:21.050Z,23.40
2022-08-23T16:46:48.670Z,33.65
2022-08-23T16:49:16.870Z,40.30
2022-08-23T16:51:44.511Z,35.78
2022-08-23T16:54:12.093Z,34.00
2022-08-23T16:56:39.913Z,28.00
2022-08-23T16:59:09.010Z,25.98
2022-08-23T17:01:48.350Z,27.63
2022-08-23T17:04:15.854Z,37.55
2022-08-23T17:06:43.421Z,26.45
2022-08-23T17:09:11.322Z,30.38
2022-08-23T17:11:44.491Z,26.05
2022-08-23T17:14:12.838Z,35.92
2022-08-23T17:16:41.221Z,32.72
2022-08-23T17:19:08.655Z,42.95
2022-08-23T17:21:35.942Z,37.40
2022-08-23T17:24:03.289Z,33.25
2022-08-23T17:26:30.853Z,34.92
2022-08-23T17:28:58.263Z,29.50
2022-08-23T17:31:27.136Z,29.20
2022-08-23T17:33:56.450Z,34.13
2022-08-23T17:36:26.531Z,27.50
2022-08-23T17:38:54.866Z,25.25
2022-08-23T17:41:22.202Z,25.75
2022-08-23T17:43:49.507Z,26.92
2022-08-23T17:46:16.961Z,20.65
2022-08-23T17:48:44.275Z,27.77
2022-08-23T17:51:11.549Z,18.75
2022-08-23T17:53:38.838Z,19.83
2022-08-23T17:56:08.950Z,20.92
2022-08-23T17:58:39.701Z,19.90
2022-08-23T18:01:07.211Z,20.33
2022-08-23T18:03:34.843Z,16.60
2022-08-23T18:06:02.474Z,19.42
2022-08-23T18:08:44.315Z,23.02
2022-08-23T18:11:11.637Z,21.10
2022-08-23T18:13:39.592Z,30.60
2022-08-23T18:16:07.336Z,18.63
2022-08-23T18:18:34.771Z,27.42
2022-08-23T18:21:09.318Z,23.35
2022-08-23T18:23:36.654Z,20.65
2022-08-23T18:26:34.079Z,25.20
2022-08-23T18:29:01.675Z,19.02
2022-08-23T18:31:29.203Z,20.73
2022-08-23T18:34:00.371Z,26.08
2022-08-23T18:36:28.672Z,22.02
2022-08-23T18:38:55.981Z,15.43
2022-08-23T18:41:23.901Z,18.38
2022-08-23T18:43:51.284Z,24.55
2022-08-23T18:46:19.046Z,18.40
2022-08-23T18:48:53.564Z,21.70
2022-08-23T18:51:22.462Z,21.80
2022-08-23T18:53:49.821Z,13.88
2022-08-23T18:56:17.174Z,25.17
2022-08-23T18:58:44.471Z,27.58
2022-08-23T19:01:22.181Z,21.55
2022-08-23T19:03:49.570Z,24.42
2022-08-23T19:06:16.874Z,20.92
2022-08-23T19:08:44.712Z,22.48
2022-08-23T19:11:12.453Z,23.55
2022-08-23T19:13:39.790Z,25.27
2022-08-23T19:16:07.911Z,23.02
2022-08-23T19:18:35.917Z,20.90
2022-08-23T19:21:06.045Z,20.08
2022-08-23T19:23:33.551Z,19.27
2022-08-23T19:26:01.607Z,32.80
2022-08-23T19:28:28.919Z,18.17
2022-08-23T19:30:56.207Z,23.33
2022-08-23T19:33:23.674Z,19.83
2022-08-23T19:35:50.998Z,32.88
2022-08-23T19:38:18.593Z,30.15
2022-08-23T19:40:46.193Z,22.23
2022-08-23T19:43:14.466Z,18.67
2022-08-23T19:45:42.036Z,22.77
2022-08-23T19:48:10.081Z,28.15
2022-08-23T19:50:37.732Z,31.83
2022-08-23T19:53:05.039Z,26.70
2022-08-23T19:55:32.993Z,26.58
2022-08-23T19:58:00.341Z,29.80
2022-08-23T20:00:29.283Z,30.55
2022-08-23T20:02:56.727Z,27.38
2022-08-23T20:05:24.166Z,22.23
2022-08-23T20:07:51.502Z,29.25
2022-08-23T20:10:18.940Z,26.20
2022-08-23T20:12:46.239Z,23.73
2022-08-23T20:15:13.645Z,27.92
2022-08-23T20:17:41.674Z,24.90
2022-08-23T20:20:10.470Z,27.60
2022-08-23T20:22:56.817Z,29.83
2022-08-23T20:25:24.527Z,34.97
2022-08-23T20:27:52.745Z,32.45
2022-08-23T20:30:20.234Z,25.90
2022-08-23T20:32:47.549Z,31.30
2022-08-23T20:35:14.890Z,26.27
2022-08-23T20:37:42.290Z,24.05
2022-08-23T20:40:14.621Z,25.67
2022-08-23T20:42:42.074Z,30.50
2022-08-23T20:45:09.564Z,29.70
2022-08-23T20:47:36.947Z,25.38
2022-08-23T20:50:04.607Z,37.08
2022-08-23T20:52:34.733Z,26.98
2022-08-23T20:55:02.699Z,32.35
2022-08-23T20:57:36.794Z,32.20
2022-08-23T21:00:06.131Z,24.75
2022-08-23T21:02:33.498Z,35.17
2022-08-23T21:05:01.200Z,28.98
2022-08-23T21:07:32.158Z,23.30
2022-08-23T21:09:59.919Z,27.38
2022-08-23T21:12:27.202Z,21.90
2022-08-23T21:14:56.797Z,28.63
2022-08-23T21:17:24.102Z,24.55
2022-08-23T21:19:51.371Z,25.42
2022-08-23T21:22:18.645Z,21.80
2022-08-23T21:24:46.768Z,31.10
2022-08-23T21:27:16.146Z,24.38
2022-08-23T21:29:43.564Z,19.27
2022-08-23T21:32:10.938Z,32.90
2022-08-23T21:34:38.240Z,26.92
2022-08-23T21:37:05.605Z,20.38
2022-08-23T21:39:32.942Z,17.17
2022-08-23T21:42:00.648Z,23.83
2022-08-23T21:44:28.019Z,27.33
2022-08-23T21:46:55.623Z,28.30
2022-08-23T21:49:23.353Z,26.02
2022-08-23T21:51:51.422Z,20.75
2022-08-23T21:54:18.798Z,32.63
2022-08-23T21:56:46.609Z,28.48
2022-08-23T21:59:16.752Z,30.17
2022-08-23T22:01:44.345Z,29.00
2022-08-23T22:04:13.421Z,28.33
2022-08-23T22:06:41.946Z,21.88
2022-08-23T22:09:11.137Z,24.13
2022-08-23T22:11:40.696Z,23.50
2022-08-23T22:14:09.767Z,19.20
2022-08-23T22:16:37.465Z,22.05
2022-08-23T22:19:05.132Z,23.33
2022-08-23T22:21:35.518Z,19.98
2022-08-23T22:24:03.109Z,25.67
2022-08-23T22:26:30.367Z,22.17
2022-08-23T22:28:57.702Z,22.90
2022-08-23T22:31:25.133Z,24.38
2022-08-23T22:33:53.766Z,23.52
2022-08-23T22:36:22.686Z,23.45
2022-08-23T22:38:51.064Z,22.83
2022-08-23T22:41:20.319Z,26.02
2022-08-23T22:43:47.664Z,19.63
2022-08-23T22:46:15.100Z,25.90
2022-08-23T22:48:42.627Z,23.48
2022-08-23T22:51:20.103Z,17.83
2022-08-23T22:53:49.250Z,24.63
2022-08-23T22:56:18.235Z,25.75
2022-08-23T22:58:45.697Z,27.05
2022-08-23T23:01:23.955Z,19.92
2022-08-23T23:03:52.335Z,23.67
2022-08-23T23:06:19.738Z,26.63
2022-08-23T23:08:47.078Z,25.85
2022-08-23T23:11:14.913Z,27.92
2022-08-23T23:13:42.299Z,19.77
2022-08-23T23:16:13.581Z,18.45
2022-08-23T23:18:41.699Z,24.55
2022-08-23T23:21:09.823Z,23.13
2022-08-23T23:23:37.792Z,22.85
2022-08-23T23:26:08.252Z,24.80
2022-08-23T23:28:35.578Z,31.55
2022-08-23T23:31:04.582Z,22.92
2022-08-23T23:33:31.921Z,19.73
2022-08-23T23:35:59.692Z,21.83
2022-08-23T23:38:26.993Z,20.63
2022-08-23T23:40:54.272Z,20.65
2022-08-23T23:43:21.591Z,23.70
2022-08-23T23:45:48.983Z,24.95
2022-08-23T23:48:16.530Z,23.88
2022-08-23T23:50:45.237Z,23.33
2022-08-23T23:53:14.558Z,27.17
2022-08-23T23:55:42.104Z,22.63
2022-08-23T23:58:10.262Z,26.52
